createdAt,value
2022-12-09T00:04:53.338Z,71.71
2022-12-09T00:09:56.137Z,71.43
2022-12-09T00:14:59.202Z,71.07
2022-12-09T00:20:01.916Z,71.16
2022-12-09T00:25:06.849Z,71.29
2022-12-09T00:30:10.269Z,71.28
2022-12-09T00:35:13.654Z,71.28
2022-12-09T00:40:16.488Z,71.16
2022-12-09T00:45:19.244Z,71.33
2022-12-09T00:50:22.559Z,71.29
2022-12-09T00:55:25.496Z,71.04
2022-12-09T01:00:28.615Z,71.38
2022-12-09T01:05:31.301Z,71.17
2022-12-09T01:10:35.283Z,71.09
2022-12-09T01:15:39.743Z,71.03
2022-12-09T01:20:43.437Z,72.07
2022-12-09T01:25:46.956Z,71.55
2022-12-09T01:30:49.752Z,70.80
2022-12-09T01:35:52.577Z,71.72
2022-12-09T01:40:55.251Z,72.09
2022-12-09T01:45:58.160Z,71.41
2022-12-09T01:51:09.006Z,71.46
2022-12-09T01:56:18.664Z,70.86
2022-12-09T02:01:22.513Z,71.44
2022-12-09T02:06:25.781Z,71.26
2022-12-09T02:11:45.308Z,71.54
2022-12-09T02:17:01.439Z,71.83
2022-12-09T02:22:04.697Z,72.07
2022-12-09T02:27:25.779Z,71.59
2022-12-09T02:32:28.666Z,71.89
2022-12-09T02:37:36.726Z,71.63
2022-12-09T02:42:40.021Z,71.83
2022-12-09T02:47:48.843Z,71.65
2022-12-09T02:52:53.853Z,71.86
2022-12-09T02:58:00.008Z,71.84
2022-12-09T03:03:06.415Z,72.00
2022-12-09T03:08:21.642Z,71.50
2022-12-09T03:13:39.942Z,71.51
2022-12-09T03:18:46.726Z,71.71
2022-12-09T03:23:51.124Z,71.94
2022-12-09T03:28:55.234Z,71.45
2022-12-09T03:34:01.918Z,71.86
2022-12-09T03:39:07.514Z,71.93
2022-12-09T03:44:14.744Z,71.20
2022-12-09T03:49:17.446Z,71.33
2022-12-09T03:54:28.961Z,71.51
2022-12-09T03:59:35.959Z,70.90
2022-12-09T04:04:42.270Z,71.19
2022-12-09T04:09:45.485Z,70.57
2022-12-09T04:14:48.436Z,70.26
2022-12-09T04:19:51.180Z,70.25
2022-12-09T04:24:54.202Z,70.61
2022-12-09T04:29:57.036Z,69.55
2022-12-09T04:35:00.021Z,69.60
2022-12-09T04:40:02.701Z,70.06
2022-12-09T04:45:06.370Z,70.02
2022-12-09T04:50:09.594Z,69.79
2022-12-09T04:55:14.512Z,69.81
2022-12-09T05:00:18.007Z,70.12
2022-12-09T05:05:21.349Z,69.57
2022-12-09T05:10:24.415Z,70.01
2022-12-09T05:15:27.552Z,70.08
2022-12-09T05:20:30.618Z,69.60
2022-12-09T05:25:34.052Z,69.97
2022-12-09T05:30:39.670Z,69.22
2022-12-09T05:35:52.402Z,69.95
2022-12-09T05:40:56.394Z,69.61
2022-12-09T05:45:59.613Z,69.62
2022-12-09T05:51:08.111Z,69.64
2022-12-09T05:56:11.449Z,69.96
2022-12-09T06:01:14.904Z,69.47
2022-12-09T06:06:20.728Z,70.08
2022-12-09T06:11:24.028Z,70.14
2022-12-09T06:16:27.291Z,70.14
2022-12-09T06:21:30.579Z,69.86
2022-12-09T06:26:33.799Z,69.58
2022-12-09T06:31:37.137Z,69.86
2022-12-09T06:36:40.484Z,69.91
2022-12-09T06:41:44.004Z,70.34
2022-12-09T06:46:47.153Z,70.25
2022-12-09T06:51:50.061Z,69.65
2022-12-09T06:56:52.638Z,69.75
2022-12-09T07:01:55.493Z,69.94
2022-12-09T07:06:58.232Z,69.95
2022-12-09T07:12:01.074Z,69.79
2022-12-09T07:17:04.727Z,70.15
2022-12-09T07:22:07.587Z,69.82
2022-12-09T07:27:19.316Z,70.39
2022-12-09T07:32:22.942Z,70.31
2022-12-09T07:37:25.822Z,70.13
2022-12-09T07:42:28.925Z,70.64
2022-12-09T07:47:31.798Z,70.16
2022-12-09T07:52:35.039Z,70.08
2022-12-09T07:57:38.844Z,70.01
2022-12-09T08:02:41.650Z,70.37
2022-12-09T08:07:45.454Z,70.49
2022-12-09T08:12:48.759Z,70.65
2022-12-09T08:17:51.612Z,70.39
2022-12-09T08:22:54.273Z,70.69
2022-12-09T08:27:57.216Z,70.09
2022-12-09T08:33:00.836Z,70.42
2022-12-09T08:38:03.667Z,70.32
2022-12-09T08:43:08.980Z,69.87
2022-12-09T08:48:12.106Z,69.72
2022-12-09T08:53:15.340Z,70.12
2022-12-09T08:58:18.102Z,70.30
2022-12-09T09:03:20.811Z,69.71
2022-12-09T09:08:24.303Z,69.27
2022-12-09T09:13:28.009Z,69.59
2022-12-09T09:18:30.983Z,69.27
2022-12-09T09:23:34.079Z,68.99
2022-12-09T09:28:36.858Z,69.56
2022-12-09T09:33:40.769Z,69.30
2022-12-09T09:38:43.957Z,69.37
2022-12-09T09:43:46.636Z,69.75
2022-12-09T09:48:51.216Z,69.62
2022-12-09T09:53:55.544Z,69.67
2022-12-09T09:59:55.752Z,69.68
2022-12-09T10:05:04.566Z,69.90
2022-12-09T10:10:41.658Z,70.03
2022-12-09T10:16:10.270Z,69.63
2022-12-09T10:21:40.253Z,69.35
2022-12-09T10:26:43.742Z,69.79
2022-12-09T10:31:46.697Z,69.98
2022-12-09T10:36:49.497Z,70.10
2022-12-09T10:42:12.898Z,69.88
2022-12-09T10:47:26.072Z,70.42
2022-12-09T10:52:31.760Z,69.95
2022-12-09T10:57:34.739Z,70.03
2022-12-09T11:02:37.536Z,70.05
2022-12-09T11:07:48.673Z,70.13
2022-12-09T11:12:55.334Z,70.49
2022-12-09T11:18:03.447Z,69.64
2022-12-09T11:23:12.389Z,70.21
2022-12-09T11:28:18.206Z,70.01
2022-12-09T11:33:28.207Z,70.06
2022-12-09T11:38:30.835Z,69.87
2022-12-09T11:43:49.939Z,70.67
2022-12-09T11:48:57.277Z,70.85
2022-12-09T11:54:05.362Z,70.26
2022-12-09T11:59:18.288Z,71.02
2022-12-09T12:04:25.224Z,70.40
2022-12-09T12:09:57.751Z,70.49
2022-12-09T12:15:06.768Z,70.71
2022-12-09T12:20:13.132Z,70.55
2022-12-09T12:25:26.884Z,70.95
2022-12-09T12:30:53.511Z,70.73
2022-12-09T12:36:29.570Z,70.90
2022-12-09T12:42:09.480Z,71.10
2022-12-09T12:47:12.019Z,71.08
2022-12-09T12:52:53.689Z,70.14
2022-12-09T12:58:11.272Z,70.39
2022-12-09T13:03:32.492Z,70.08
2022-12-09T13:08:47.673Z,70.21
2022-12-09T13:14:07.213Z,70.89
2022-12-09T13:19:18.701Z,70.74
2022-12-09T13:25:00.338Z,70.33
2022-12-09T13:30:36.979Z,70.30
2022-12-09T13:35:55.333Z,69.97
2022-12-09T13:40:57.990Z,70.17
2022-12-09T13:46:01.878Z,69.95
2022-12-09T13:51:04.800Z,69.96
2022-12-09T13:56:08.618Z,70.04
2022-12-09T14:01:16.903Z,69.65
2022-12-09T14:06:26.345Z,69.18
2022-12-09T14:11:38.201Z,69.32
2022-12-09T14:16:40.814Z,69.16
2022-12-09T14:21:43.444Z,69.25
2022-12-09T14:26:53.246Z,69.26
2022-12-09T14:31:55.827Z,69.21
2022-12-09T14:37:41.991Z,69.02
2022-12-09T14:42:53.031Z,69.28
2022-12-09T14:47:56.552Z,69.23
2022-12-09T14:53:02.449Z,69.15
2022-12-09T14:58:05.918Z,69.33
2022-12-09T15:03:37.030Z,69.24
2022-12-09T15:08:47.962Z,69.68
2022-12-09T15:13:52.661Z,69.77
2022-12-09T15:18:55.714Z,69.75
2022-12-09T15:23:59.965Z,69.61
2022-12-09T15:29:05.511Z,70.27
2022-12-09T15:34:21.710Z,70.18
2022-12-09T15:39:50.585Z,70.24
2022-12-09T15:44:58.241Z,70.10
2022-12-09T15:50:12.388Z,69.72
2022-12-09T15:55:16.770Z,69.83
2022-12-09T16:00:19.804Z,69.81
2022-12-09T16:05:26.265Z,69.39
2022-12-09T16:10:30.239Z,69.28
2022-12-09T16:15:53.767Z,69.09
2022-12-09T16:21:15.362Z,68.91
2022-12-09T16:26:29.612Z,68.44
2022-12-09T16:31:32.321Z,68.42
2022-12-09T16:36:35.100Z,68.53
2022-12-09T16:41:52.899Z,68.59
2022-12-09T16:47:19.173Z,68.70
2022-12-09T16:52:24.033Z,68.45
2022-12-09T16:57:26.719Z,68.42
2022-12-09T17:02:39.915Z,68.47
2022-12-09T17:07:42.669Z,68.60
2022-12-09T17:12:46.119Z,67.94
2022-12-09T17:17:49.182Z,68.09
2022-12-09T17:22:51.956Z,67.62
2022-12-09T17:27:54.774Z,67.71
2022-12-09T17:32:59.300Z,67.83
2022-12-09T17:38:02.721Z,67.85
2022-12-09T17:43:05.609Z,67.88
2022-12-09T17:48:08.317Z,67.00
2022-12-09T17:53:11.170Z,66.95
2022-12-09T17:58:13.951Z,67.28
2022-12-09T18:03:27.371Z,67.06
2022-12-09T18:08:39.643Z,67.32
2022-12-09T18:13:42.276Z,67.45
2022-12-09T18:18:45.454Z,67.15
2022-12-09T18:23:48.705Z,66.79
2022-12-09T18:28:56.769Z,66.49
2022-12-09T18:33:59.526Z,66.32
2022-12-09T18:39:02.318Z,66.11
2022-12-09T18:44:06.774Z,65.85
2022-12-09T18:49:16.284Z,66.17
2022-12-09T18:54:23.718Z,66.49
2022-12-09T18:59:26.498Z,66.52
2022-12-09T19:04:30.341Z,66.91
2022-12-09T19:09:35.044Z,66.81
2022-12-09T19:14:41.022Z,66.66
2022-12-09T19:19:45.593Z,66.80
2022-12-09T19:24:48.303Z,66.86
2022-12-09T19:29:50.940Z,66.75
2022-12-09T19:34:53.657Z,66.33
2022-12-09T19:39:56.270Z,66.03
2022-12-09T19:45:01.977Z,66.14
2022-12-09T19:50:07.788Z,66.44
2022-12-09T19:55:10.691Z,66.53
2022-12-09T20:00:13.938Z,66.61
2022-12-09T20:05:17.052Z,66.55
2022-12-09T20:10:19.707Z,66.76
2022-12-09T20:15:22.332Z,66.90
2022-12-09T20:20:24.986Z,66.49
2022-12-09T20:25:28.003Z,66.88
2022-12-09T20:30:31.036Z,67.29
2022-12-09T20:35:37.263Z,67.30
2022-12-09T20:40:40.947Z,67.38
2022-12-09T20:45:43.876Z,67.65
2022-12-09T20:50:46.631Z,68.06
2022-12-09T20:55:59.108Z,68.02
2022-12-09T21:01:13.024Z,68.75
2022-12-09T21:06:17.840Z,68.64
2022-12-09T21:11:23.164Z,69.21
2022-12-09T21:16:28.255Z,69.88
2022-12-09T21:21:34.594Z,70.12
2022-12-09T21:26:37.387Z,70.69
2022-12-09T21:31:44.535Z,70.96
2022-12-09T21:36:48.575Z,71.07
2022-12-09T21:41:51.402Z,71.54
2022-12-09T21:46:54.391Z,71.45
2022-12-09T21:51:57.015Z,71.83
2022-12-09T21:57:00.071Z,71.99
2022-12-09T22:02:02.766Z,72.12
2022-12-09T22:07:05.556Z,72.58
2022-12-09T22:12:08.480Z,72.66
2022-12-09T22:17:11.151Z,72.91
2022-12-09T22:22:13.803Z,72.83
2022-12-09T22:27:16.442Z,73.19
2022-12-09T22:32:19.082Z,73.32
2022-12-09T22:37:43.177Z,73.47
2022-12-09T22:42:44.528Z,73.61
2022-12-09T22:47:47.285Z,73.77
2022-12-09T22:52:49.990Z,73.81
2022-12-09T22:57:52.960Z,73.88
2022-12-09T23:02:55.637Z,74.03
2022-12-09T23:07:58.491Z,74.24
2022-12-09T23:13:01.216Z,74.26
2022-12-09T23:18:04.243Z,74.35
2022-12-09T23:23:06.865Z,74.28
2022-12-09T23:28:11.921Z,74.41
2022-12-09T23:33:14.603Z,74.51
2022-12-09T23:38:17.402Z,74.46
2022-12-09T23:43:20.953Z,74.59
2022-12-09T23:48:23.656Z,74.35
2022-12-09T23:53:27.009Z,74.42
2022-12-09T23:58:29.697Z,74.49
